Time;durP1;ratioP1;P1;durP2;ratioP2;P2;SDS_P1;SDS_P2;PMS_P1;PMS_P2;Temp;Humidity;BMP_temperature;BMP_pressure;BME280_temperature;BME280_humidity;BME280_pressure;Samples;Min_cycle;Max_cycle;Signal;HPM_P1;HPM_P2
2022/07/05 00:01:36;;;;;;;1.10;0.70;;;20.60;1.00;;;;;;5095281;28;20540;-73
2022/07/05 00:04:03;;;;;;;2.30;0.70;;;20.90;1.00;;;;;;5095926;28;20536;-73
2022/07/05 00:06:30;;;;;;;0.70;0.60;;;21.10;1.00;;;;;;5094006;28;20485;-73
2022/07/05 00:08:57;;;;;;;0.80;0.60;;;21.10;1.00;;;;;;5094739;28;20489;-74
2022/07/05 00:11:24;;;;;;;0.60;0.60;;;21.20;1.00;;;;;;5095384;28;20821;-73
2022/07/05 00:13:51;;;;;;;1.00;0.60;;;21.30;1.00;;;;;;5094931;28;20556;-73
2022/07/05 00:16:19;;;;;;;0.80;0.60;;;21.10;1.00;;;;;;5095874;28;20493;-73
2022/07/05 00:18:46;;;;;;;1.70;0.80;;;21.00;1.00;;;;;;5096510;28;20482;-73
2022/07/05 00:21:13;;;;;;;1.53;0.87;;;20.90;1.00;;;;;;5099461;28;20859;-74
2022/07/05 00:23:40;;;;;;;1.00;0.70;;;20.80;1.00;;;;;;5099810;28;20485;-73
2022/07/05 00:26:07;;;;;;;2.80;0.80;;;20.60;1.00;;;;;;5099917;28;20821;-73
2022/07/05 00:28:34;;;;;;;1.67;0.60;;;20.50;1.00;;;;;;5100893;28;20453;-73
2022/07/05 00:31:01;;;;;;;0.90;0.70;;;20.40;8.00;;;;;;5099646;28;20465;-73
2022/07/05 00:33:29;;;;;;;1.00;0.70;;;20.30;54.50;;;;;;5099457;28;20488;-73
2022/07/05 00:35:56;;;;;;;1.40;0.80;;;20.20;99.90;;;;;;5100281;28;20488;-73
2022/07/05 00:38:23;;;;;;;1.00;0.60;;;20.20;99.90;;;;;;5099737;28;20498;-73
2022/07/05 00:40:50;;;;;;;1.13;0.80;;;20.10;99.90;;;;;;5099767;28;20940;-73
2022/07/05 00:43:17;;;;;;;1.00;0.70;;;20.10;99.90;;;;;;5100365;28;20531;-73
2022/07/05 00:45:44;;;;;;;1.47;0.70;;;20.10;99.90;;;;;;5099799;28;20554;-73
2022/07/05 00:48:11;;;;;;;1.80;0.80;;;20.20;99.90;;;;;;5098704;28;20492;-73
2022/07/05 00:50:41;;;;;;;1.10;0.80;;;20.10;99.90;;;;;;5099112;28;20787;-73
2022/07/05 00:53:08;;;;;;;2.70;0.80;;;20.10;99.90;;;;;;5098098;28;20559;-73
2022/07/05 00:55:35;;;;;;;1.77;0.70;;;20.10;99.90;;;;;;5098761;28;20527;-72
2022/07/05 00:58:02;;;;;;;0.97;0.70;;;20.10;99.90;;;;;;5099705;28;20892;-73
2022/07/05 01:00:29;;;;;;;0.90;0.60;;;20.10;99.90;;;;;;5099227;28;20528;-73
2022/07/05 01:02:56;;;;;;;0.60;0.50;;;20.10;99.90;;;;;;5098361;28;20526;-73
2022/07/05 01:05:23;;;;;;;0.90;0.60;;;20.10;91.40;;;;;;5098025;28;20492;-73
2022/07/05 01:07:52;;;;;;;0.80;0.50;;;20.00;25.40;;;;;;5098655;28;20485;-73
2022/07/05 01:10:19;;;;;;;0.83;0.70;;;20.10;52.20;;;;;;5097612;28;20563;-73
2022/07/05 01:12:47;;;;;;;1.10;0.50;;;20.10;9.30;;;;;;5098566;28;20957;-73
2022/07/05 01:15:14;;;;;;;1.03;0.50;;;20.10;13.40;;;;;;5098979;28;20533;-73
2022/07/05 01:17:41;;;;;;;0.80;0.60;;;20.00;6.90;;;;;;5096610;28;20541;-73
2022/07/05 01:20:09;;;;;;;0.80;0.60;;;19.90;49.70;;;;;;5095599;28;20563;-73
2022/07/05 01:22:59;;;;;;;1.30;0.80;;;19.90;99.90;;;;;;5096350;28;20545;-73
2022/07/05 01:25:28;;;;;;;1.30;0.70;;;19.80;99.90;;;;;;5091267;28;20850;-73
2022/07/05 01:27:56;;;;;;;0.70;0.60;;;19.80;99.90;;;;;;5095022;28;20481;-73
2022/07/05 01:30:24;;;;;;;1.43;0.60;;;19.70;99.90;;;;;;5094816;28;20469;-73
2022/07/05 01:32:51;;;;;;;0.80;0.60;;;19.70;99.90;;;;;;5096059;28;20824;-72
2022/07/05 01:35:21;;;;;;;0.80;0.60;;;19.70;99.90;;;;;;5096066;28;20438;-73
2022/07/05 01:37:49;;;;;;;0.70;0.60;;;19.70;99.90;;;;;;5096451;28;20453;-73
2022/07/05 01:40:18;;;;;;;0.63;0.60;;;19.70;99.90;;;;;;5096832;28;20576;-73
2022/07/05 01:42:46;;;;;;;0.60;0.50;;;19.60;99.90;;;;;;5097062;28;20453;-74
2022/07/05 01:45:38;;;;;;;0.77;0.60;;;19.60;99.90;;;;;;5097124;28;20921;-72
2022/07/05 01:48:01;;;;;;;0.90;0.60;;;19.50;99.90;;;;;;5097645;28;20553;-72
2022/07/05 01:50:32;;;;;;;0.70;0.50;;;19.50;99.90;;;;;;5099173;28;20477;-72
2022/07/05 01:53:01;;;;;;;0.97;0.50;;;19.50;99.90;;;;;;5086921;28;20517;-72
2022/07/05 01:55:30;;;;;;;0.90;0.50;;;19.40;99.90;;;;;;5099123;28;20520;-71
2022/07/05 01:57:56;;;;;;;0.90;0.60;;;19.30;99.90;;;;;;5097919;28;20548;-72
2022/07/05 02:00:23;;;;;;;0.70;0.50;;;19.30;99.90;;;;;;5098327;28;20572;-71
2022/07/05 02:02:50;;;;;;;0.70;0.50;;;19.30;99.90;;;;;;5097548;28;20496;-72
2022/07/05 02:05:17;;;;;;;0.70;0.50;;;19.30;99.90;;;;;;5098052;28;20904;-72
2022/07/05 02:07:48;;;;;;;1.20;0.60;;;19.20;99.90;;;;;;5097475;28;20551;-72
2022/07/05 02:10:15;;;;;;;0.80;0.50;;;19.20;99.90;;;;;;5096604;28;20481;-72
2022/07/05 02:12:43;;;;;;;1.60;0.60;;;19.20;99.90;;;;;;5096122;28;20564;-72
2022/07/05 02:15:10;;;;;;;0.60;0.50;;;19.20;99.90;;;;;;5096893;28;20549;-72
2022/07/05 02:17:38;;;;;;;0.80;0.50;;;19.30;99.90;;;;;;5097109;28;20664;-72
2022/07/05 02:20:06;;;;;;;0.87;0.50;;;19.20;99.90;;;;;;5096411;28;20542;-71
2022/07/05 02:22:34;;;;;;;1.80;0.50;;;19.20;99.90;;;;;;5096386;28;20826;-72
2022/07/05 02:25:01;;;;;;;0.73;0.53;;;19.10;99.90;;;;;;5096462;28;20626;-72
2022/07/05 02:27:28;;;;;;;1.57;0.60;;;19.20;99.90;;;;;;5096596;28;20556;-72
2022/07/05 02:29:56;;;;;;;0.70;0.60;;;19.10;99.90;;;;;;5098591;28;20552;-72
2022/07/05 02:32:23;;;;;;;0.60;0.50;;;19.10;99.90;;;;;;5097433;28;20477;-72
2022/07/05 02:34:50;;;;;;;0.67;0.50;;;19.00;99.90;;;;;;5097423;28;20536;-72
2022/07/05 02:37:16;;;;;;;0.70;0.50;;;19.00;1.00;;;;;;5096359;28;20568;-72
2022/07/05 02:39:43;;;;;;;0.80;0.50;;;19.00;1.00;;;;;;5096415;28;20493;-72
2022/07/05 02:42:10;;;;;;;0.70;0.57;;;19.00;1.00;;;;;;5095965;28;20838;-72
2022/07/05 02:44:37;;;;;;;0.73;0.47;;;18.90;1.00;;;;;;5096319;28;20928;-71
2022/07/05 02:47:05;;;;;;;0.70;0.50;;;18.90;1.00;;;;;;5097783;28;20454;-72
2022/07/05 02:49:32;;;;;;;0.60;0.47;;;18.80;1.00;;;;;;5097937;28;20441;-72
2022/07/05 02:51:59;;;;;;;1.27;0.60;;;18.70;1.00;;;;;;5097581;28;20696;-72
2022/07/05 02:54:26;;;;;;;0.90;0.50;;;18.70;1.00;;;;;;5116309;28;20512;-72
2022/07/05 02:56:53;;;;;;;0.77;0.60;;;18.70;1.00;;;;;;5117389;28;20545;-72
2022/07/05 02:59:20;;;;;;;1.77;0.60;;;18.70;1.00;;;;;;5117278;28;20501;-71
2022/07/05 03:01:47;;;;;;;0.60;0.53;;;18.60;1.00;;;;;;5117506;28;20567;-72
2022/07/05 03:04:15;;;;;;;0.70;0.60;;;18.60;1.00;;;;;;5117188;28;20536;-72
2022/07/05 03:06:42;;;;;;;0.60;0.50;;;18.60;89.80;;;;;;5117236;28;20468;-72
2022/07/05 03:09:09;;;;;;;1.57;0.60;;;18.60;99.90;;;;;;5117447;28;20535;-72
2022/07/05 03:11:36;;;;;;;1.77;0.60;;;18.60;99.90;;;;;;5116950;28;20492;-72
2022/07/05 03:14:03;;;;;;;0.57;0.50;;;18.70;99.90;;;;;;5117340;28;20523;-72
2022/07/05 03:16:30;;;;;;;0.70;0.60;;;18.70;1.00;;;;;;5117150;28;20441;-71
2022/07/05 03:18:57;;;;;;;0.77;0.50;;;18.70;27.20;;;;;;5117810;28;20499;-72
2022/07/05 03:21:25;;;;;;;0.97;0.70;;;18.60;58.00;;;;;;5117749;28;20566;-71
2022/07/05 03:23:52;;;;;;;0.60;0.50;;;18.60;99.90;;;;;;5117493;28;20538;-72
2022/07/05 03:26:19;;;;;;;0.60;0.60;;;18.60;99.90;;;;;;5117438;28;20480;-72
2022/07/05 03:28:46;;;;;;;0.70;0.50;;;18.60;99.90;;;;;;5116903;28;20456;-72
2022/07/05 03:31:13;;;;;;;1.10;0.40;;;18.60;1.00;;;;;;5117152;28;20540;-73
2022/07/05 03:33:40;;;;;;;0.90;0.60;;;18.50;1.00;;;;;;5117197;28;20550;-72
2022/07/05 03:36:07;;;;;;;0.70;0.50;;;18.40;17.90;;;;;;5117512;28;20824;-72
2022/07/05 03:38:36;;;;;;;0.80;0.60;;;18.30;99.90;;;;;;5116863;28;20741;-72
2022/07/05 03:41:03;;;;;;;0.57;0.50;;;18.20;99.90;;;;;;5117257;28;20480;-72
2022/07/05 03:43:30;;;;;;;1.00;0.60;;;18.20;99.90;;;;;;5117158;28;20452;-72
2022/07/05 03:45:57;;;;;;;1.23;0.60;;;18.20;99.90;;;;;;5116463;28;20459;-72
2022/07/05 03:48:24;;;;;;;0.73;0.50;;;18.20;1.00;;;;;;5115852;28;20488;-72
2022/07/05 03:50:51;;;;;;;0.70;0.50;;;18.20;1.00;;;;;;5115386;28;20805;-72
2022/07/05 03:53:18;;;;;;;0.70;0.50;;;18.20;1.00;;;;;;5115548;28;20818;-71
2022/07/05 03:55:46;;;;;;;0.80;0.60;;;18.20;99.90;;;;;;5115457;28;20449;-72
2022/07/05 03:58:13;;;;;;;0.77;0.60;;;18.20;99.90;;;;;;5115171;28;20627;-72
2022/07/05 04:00:40;;;;;;;0.80;0.50;;;18.20;99.90;;;;;;5115451;28;20476;-72
2022/07/05 04:03:07;;;;;;;1.10;0.60;;;18.20;99.90;;;;;;5116132;28;20559;-72
2022/07/05 04:05:34;;;;;;;1.43;0.60;;;18.20;99.90;;;;;;5116896;28;20468;-72
2022/07/05 04:08:01;;;;;;;0.77;0.50;;;18.20;99.90;;;;;;5116691;28;20543;-72
2022/07/05 04:10:28;;;;;;;0.70;0.50;;;18.20;1.00;;;;;;5116861;28;20492;-70
2022/07/05 04:12:56;;;;;;;1.27;0.50;;;18.20;1.00;;;;;;5117224;28;20535;-72
2022/07/05 04:15:23;;;;;;;0.73;0.50;;;18.20;1.00;;;;;;5116135;28;20487;-71
2022/07/05 04:17:51;;;;;;;0.80;0.50;;;18.20;1.00;;;;;;5115686;28;20930;-71
2022/07/05 04:20:20;;;;;;;0.50;0.40;;;18.30;1.00;;;;;;5116126;28;20540;-71
2022/07/05 04:22:47;;;;;;;0.60;0.50;;;18.30;1.00;;;;;;5116014;28;20456;-72
2022/07/05 04:25:17;;;;;;;0.60;0.50;;;18.40;1.00;;;;;;5116232;28;20535;-71
2022/07/05 04:27:44;;;;;;;0.60;0.50;;;18.50;1.00;;;;;;5115791;28;20495;-71
2022/07/05 04:30:14;;;;;;;0.73;0.50;;;18.60;1.00;;;;;;5115013;28;20927;-71
2022/07/05 04:32:41;;;;;;;0.90;0.50;;;18.60;1.00;;;;;;5114863;28;20495;-71
2022/07/05 04:35:09;;;;;;;0.77;0.50;;;18.60;1.00;;;;;;5114816;28;20832;-71
2022/07/05 04:37:36;;;;;;;1.60;0.60;;;18.60;1.00;;;;;;5114183;28;20547;-71
2022/07/05 04:40:04;;;;;;;0.90;0.50;;;18.50;1.00;;;;;;5114764;28;20484;-72
2022/07/05 04:42:31;;;;;;;1.73;0.50;;;18.50;1.00;;;;;;5114624;28;20575;-71
2022/07/05 04:44:58;;;;;;;0.83;0.50;;;18.40;1.00;;;;;;5114991;28;20608;-74
2022/07/05 04:47:26;;;;;;;0.70;0.50;;;18.40;1.00;;;;;;5114747;28;20445;-71
2022/07/05 04:49:54;;;;;;;0.67;0.53;;;18.40;1.00;;;;;;5114013;28;20543;-72
2022/07/05 04:52:21;;;;;;;1.00;0.50;;;18.40;1.00;;;;;;5114476;28;20484;-72
2022/07/05 04:54:48;;;;;;;0.70;0.40;;;18.50;1.00;;;;;;5112705;28;21086;-71
2022/07/05 04:57:15;;;;;;;0.97;0.60;;;18.40;1.00;;;;;;5112759;28;20971;-72
2022/07/05 04:59:42;;;;;;;1.30;0.50;;;18.40;1.00;;;;;;5115493;28;20527;-73
2022/07/05 05:02:09;;;;;;;0.80;0.60;;;18.40;1.00;;;;;;5114723;28;21293;-73
2022/07/05 05:04:37;;;;;;;0.70;0.50;;;18.30;1.00;;;;;;5114388;28;20491;-73
2022/07/05 05:07:04;;;;;;;1.17;0.57;;;18.50;1.00;;;;;;5115739;28;20548;-73
2022/07/05 05:09:32;;;;;;;0.90;0.50;;;18.50;1.00;;;;;;5115916;28;20816;-74
2022/07/05 05:11:59;;;;;;;0.80;0.50;;;18.60;1.00;;;;;;5114714;28;20950;-73
2022/07/05 05:14:25;;;;;;;0.70;0.40;;;18.60;1.00;;;;;;5115759;28;20483;-73
2022/07/05 05:16:52;;;;;;;1.20;0.50;;;18.80;99.90;;;;;;5114874;28;20539;-73
2022/07/05 05:19:20;;;;;;;0.67;0.50;;;18.80;99.90;;;;;;5118240;28;20476;-73
2022/07/05 05:21:48;;;;;;;0.87;0.50;;;19.00;99.90;;;;;;5116973;28;20480;-72
2022/07/05 05:24:15;;;;;;;1.00;0.50;;;19.00;99.90;;;;;;5117628;28;20509;-73
2022/07/05 05:26:42;;;;;;;0.67;0.50;;;19.20;99.90;;;;;;5118012;28;20706;-73
2022/07/05 05:29:09;;;;;;;1.10;0.50;;;19.30;40.40;;;;;;5113509;28;20837;-73
2022/07/05 05:31:36;;;;;;;0.73;0.50;;;19.50;4.80;;;;;;5113163;28;20630;-73
2022/07/05 05:34:03;;;;;;;0.77;0.30;;;19.60;1.00;;;;;;5116556;27;20534;-73
2022/07/05 05:36:30;;;;;;;0.70;0.40;;;19.70;1.00;;;;;;5132686;27;20535;-72
2022/07/05 05:38:58;;;;;;;0.90;0.40;;;19.80;1.00;;;;;;5136418;27;20550;-73
2022/07/05 05:41:25;;;;;;;0.60;0.43;;;19.90;1.00;;;;;;5132627;27;20499;-73
2022/07/05 05:43:52;;;;;;;0.80;0.40;;;20.00;1.00;;;;;;5137075;27;20487;-73
2022/07/05 05:46:18;;;;;;;0.90;0.40;;;20.00;1.00;;;;;;5137504;27;20530;-73
2022/07/05 05:48:45;;;;;;;0.60;0.50;;;20.10;1.00;;;;;;5135066;27;20970;-71
2022/07/05 05:51:12;;;;;;;1.00;0.30;;;20.00;1.00;;;;;;5135963;27;20530;-71
2022/07/05 05:53:39;;;;;;;0.50;0.40;;;20.10;1.00;;;;;;5131229;27;20567;-71
2022/07/05 05:56:08;;;;;;;0.50;0.30;;;20.30;1.00;;;;;;5137240;27;20464;-70
2022/07/05 05:58:35;;;;;;;0.50;0.40;;;20.30;1.00;;;;;;5133216;27;20810;-71
2022/07/05 06:01:02;;;;;;;0.60;0.40;;;20.40;1.00;;;;;;5134838;27;20536;-73
2022/07/05 06:03:29;;;;;;;0.50;0.40;;;20.60;1.00;;;;;;5136177;27;20488;-73
2022/07/05 06:05:56;;;;;;;0.50;0.40;;;20.60;1.00;;;;;;5136888;27;20454;-70
2022/07/05 06:08:24;;;;;;;0.67;0.33;;;20.60;1.00;;;;;;5133129;27;20583;-72
2022/07/05 06:10:51;;;;;;;0.67;0.40;;;20.50;1.00;;;;;;5136674;27;20532;-73
2022/07/05 06:13:19;;;;;;;0.43;0.30;;;20.50;1.00;;;;;;5122321;27;20456;-73
2022/07/05 06:15:46;;;;;;;0.57;0.40;;;20.40;1.00;;;;;;5128199;27;20448;-74
2022/07/05 06:18:13;;;;;;;0.47;0.30;;;20.50;1.00;;;;;;5134804;27;20500;-72
2022/07/05 06:20:40;;;;;;;0.60;0.40;;;20.50;1.00;;;;;;5136616;27;20512;-73
2022/07/05 06:23:08;;;;;;;4.32;0.40;;;20.60;1.00;;;;;;5125022;27;20496;-71
2022/07/05 06:25:36;;;;;;;0.80;0.40;;;20.60;1.00;;;;;;5129767;27;20256;-70
2022/07/05 06:28:05;;;;;;;0.50;0.30;;;20.80;1.00;;;;;;5128879;27;20459;-71
2022/07/05 06:30:34;;;;;;;0.47;0.30;;;21.00;1.00;;;;;;5134048;27;20530;-73
2022/07/05 06:33:01;;;;;;;0.60;0.30;;;21.00;1.00;;;;;;5131388;27;20768;-73
2022/07/05 06:35:28;;;;;;;0.50;0.30;;;21.00;1.00;;;;;;5144004;27;20447;-72
2022/07/05 06:38:00;;;;;;;0.50;0.30;;;21.00;1.00;;;;;;5136872;27;20484;-73
2022/07/05 06:40:28;;;;;;;0.50;0.40;;;21.00;1.00;;;;;;5130041;27;20495;-72
2022/07/05 06:42:57;;;;;;;0.50;0.30;;;21.10;1.00;;;;;;5108239;28;20515;-72
2022/07/05 06:45:25;;;;;;;0.57;0.40;;;21.20;1.00;;;;;;5123886;27;20535;-72
2022/07/05 06:48:00;;;;;;;0.47;0.30;;;21.10;1.00;;;;;;5131156;27;20544;-71
2022/07/05 06:50:28;;;;;;;0.50;0.30;;;21.10;1.00;;;;;;5132686;27;20471;-72
2022/07/05 06:52:55;;;;;;;0.50;0.33;;;21.20;1.00;;;;;;5125495;27;20480;-72
2022/07/05 06:55:23;;;;;;;2.47;0.50;;;21.30;1.00;;;;;;5129561;27;20476;-72
2022/07/05 06:57:56;;;;;;;0.40;0.30;;;21.50;1.00;;;;;;5115197;28;20971;-72
2022/07/05 07:00:23;;;;;;;0.50;0.40;;;21.60;1.00;;;;;;5118087;27;20906;-71
2022/07/05 07:02:50;;;;;;;0.60;0.30;;;21.70;1.00;;;;;;5131822;27;20476;-73
2022/07/05 07:05:19;;;;;;;0.50;0.40;;;21.80;1.00;;;;;;5133185;27;20482;-71
2022/07/05 07:10:30;;;;;;;0.40;0.30;;;21.70;1.00;;;;;;5134822;27;20493;-71
2022/07/05 07:12:57;;;;;;;0.60;0.40;;;21.80;1.00;;;;;;5124828;27;20547;-71
2022/07/05 07:15:24;;;;;;;0.50;0.30;;;21.80;1.00;;;;;;5123257;27;20569;-72
2022/07/05 07:17:51;;;;;;;0.60;0.40;;;21.80;1.00;;;;;;5131605;27;20452;-72
2022/07/05 07:20:19;;;;;;;0.70;0.40;;;21.80;1.00;;;;;;5134741;27;20753;-72
2022/07/05 07:22:46;;;;;;;0.40;0.40;;;21.80;1.00;;;;;;5135265;27;20503;-72
2022/07/05 07:25:13;;;;;;;0.70;0.30;;;21.90;1.00;;;;;;5121515;27;20446;-72
2022/07/05 07:27:44;;;;;;;0.40;0.30;;;22.20;1.00;;;;;;5128191;27;20563;-72
2022/07/05 07:30:13;;;;;;;1.33;0.37;;;22.30;1.00;;;;;;5133047;27;20439;-71
2022/07/05 07:32:40;;;;;;;0.50;0.40;;;22.40;1.00;;;;;;5136075;27;20469;-71
2022/07/05 07:35:08;;;;;;;0.70;0.40;;;22.60;1.00;;;;;;5116704;27;20521;-73
2022/07/05 07:37:37;;;;;;;0.53;0.30;;;22.60;1.00;;;;;;5124998;27;20480;-71
2022/07/05 07:40:04;;;;;;;0.87;0.40;;;22.50;1.00;;;;;;5126413;27;20478;-72
2022/07/05 07:42:31;;;;;;;1.13;0.30;;;22.50;1.00;;;;;;5143014;27;20511;-71
2022/07/05 07:44:58;;;;;;;0.50;0.30;;;22.70;1.00;;;;;;5133495;27;21162;-73
2022/07/05 07:47:25;;;;;;;0.90;0.40;;;22.80;1.00;;;;;;5134518;27;20452;-73
2022/07/05 07:49:52;;;;;;;0.80;0.50;;;22.80;1.00;;;;;;5134012;27;20501;-73
2022/07/05 07:52:20;;;;;;;1.30;0.40;;;22.90;1.00;;;;;;5133715;27;20813;-73
2022/07/05 07:54:48;;;;;;;0.50;0.37;;;22.90;1.00;;;;;;5132382;27;20844;-71
2022/07/05 07:57:15;;;;;;;1.53;0.40;;;23.00;1.00;;;;;;5135188;27;20550;-72
2022/07/05 07:59:42;;;;;;;0.80;0.40;;;23.00;1.00;;;;;;5134236;27;20508;-72
2022/07/05 08:02:10;;;;;;;1.27;0.50;;;23.00;1.00;;;;;;5120358;27;20567;-73
2022/07/05 08:04:37;;;;;;;0.73;0.40;;;23.10;1.00;;;;;;5131689;27;20494;-72
2022/07/05 08:07:04;;;;;;;1.00;0.40;;;23.20;1.00;;;;;;5119560;28;20471;-74
2022/07/05 08:09:31;;;;;;;1.30;0.40;;;23.30;1.00;;;;;;5123325;28;20447;-73
2022/07/05 08:12:00;;;;;;;1.37;0.40;;;23.40;1.00;;;;;;5114276;28;20539;-73
2022/07/05 08:14:27;;;;;;;0.57;0.30;;;23.30;1.00;;;;;;5131143;27;20461;-73
2022/07/05 08:16:54;;;;;;;0.50;0.40;;;23.30;1.00;;;;;;5134310;27;20483;-74
2022/07/05 08:22:08;;;;;;;1.83;0.37;;;23.40;1.00;;;;;;5135560;28;20900;-75
2022/07/05 08:24:39;;;;;;;0.70;0.40;;;23.50;1.00;;;;;;5128716;28;20513;-74
2022/07/05 08:27:08;;;;;;;0.73;0.30;;;23.50;1.00;;;;;;5132254;27;20461;-74
2022/07/05 08:29:35;;;;;;;0.60;0.40;;;23.50;1.00;;;;;;5127581;27;20440;-75
2022/07/05 08:32:04;;;;;;;0.50;0.40;;;23.50;1.00;;;;;;5109547;28;20458;-74
2022/07/05 08:34:31;;;;;;;1.30;0.97;;;23.60;1.00;;;;;;5133629;28;20440;-74
2022/07/05 08:37:01;;;;;;;1.13;0.50;;;23.80;1.00;;;;;;5116322;28;20456;-74
2022/07/05 08:39:31;;;;;;;0.50;0.40;;;24.00;1.00;;;;;;5127766;27;20454;-72
2022/07/05 08:42:00;;;;;;;3.67;0.43;;;24.20;1.00;;;;;;5123786;27;20484;-73
2022/07/05 08:44:29;;;;;;;0.83;0.47;;;24.30;1.00;;;;;;5127037;27;20811;-74
2022/07/05 08:46:58;;;;;;;0.57;0.40;;;24.40;1.00;;;;;;5118286;27;20534;-73
2022/07/05 08:49:26;;;;;;;0.67;0.40;;;24.40;1.00;;;;;;5134237;27;20479;-73
2022/07/05 08:51:54;;;;;;;0.40;0.30;;;24.50;1.00;;;;;;5139046;27;20456;-71
2022/07/05 08:54:27;;;;;;;1.10;0.40;;;24.20;1.00;;;;;;5134348;27;20989;-74
2022/07/05 08:56:54;;;;;;;0.70;0.40;;;24.40;1.00;;;;;;5128289;27;20494;-72
2022/07/05 08:59:21;;;;;;;0.50;0.40;;;24.50;1.00;;;;;;5115209;27;20453;-75
2022/07/05 09:01:51;;;;;;;0.60;0.40;;;24.50;1.00;;;;;;5137132;27;20546;-73
2022/07/05 09:04:20;;;;;;;0.57;0.40;;;24.60;1.00;;;;;;5137856;27;20498;-74
2022/07/05 09:06:51;;;;;;;0.40;0.30;;;24.70;1.00;;;;;;5120489;27;20448;-77
2022/07/05 09:09:19;;;;;;;0.50;0.30;;;24.80;1.00;;;;;;5113212;27;20440;-74
2022/07/05 09:11:47;;;;;;;3.00;0.30;;;24.90;1.00;;;;;;5138021;27;20435;-75
2022/07/05 09:14:20;;;;;;;0.90;0.40;;;25.10;1.00;;;;;;5133971;27;20439;-75
2022/07/05 09:16:49;;;;;;;0.40;0.27;;;25.00;1.00;;;;;;5137760;27;20556;-72
2022/07/05 09:19:16;;;;;;;0.90;0.40;;;25.00;1.00;;;;;;5127569;27;20456;-75
2022/07/05 09:21:43;;;;;;;0.40;0.30;;;25.10;1.00;;;;;;5120396;27;20450;-73
2022/07/05 09:24:13;;;;;;;0.40;0.30;;;25.10;1.00;;;;;;5135436;27;20522;-73
2022/07/05 09:26:42;;;;;;;0.90;0.37;;;25.30;1.00;;;;;;5136324;27;20523;-73
2022/07/05 09:29:10;;;;;;;0.70;0.40;;;25.20;1.00;;;;;;5133211;27;20459;-74
2022/07/05 09:31:39;;;;;;;0.50;0.30;;;25.10;1.00;;;;;;5132063;27;20726;-74
2022/07/05 09:34:09;;;;;;;1.17;0.37;;;25.10;1.00;;;;;;5129652;27;20505;-73
2022/07/05 09:36:54;;;;;;;0.50;0.30;;;25.30;1.00;;;;;;5136475;27;20938;-74
2022/07/05 09:39:37;;;;;;;2.10;0.50;;;25.20;1.00;;;;;;5137191;27;20459;-74
2022/07/05 09:42:23;;;;;;;1.00;0.50;;;25.40;1.00;;;;;;5136532;27;20448;-74
2022/07/05 09:44:51;;;;;;;0.50;0.40;;;25.70;1.00;;;;;;5135504;27;20578;-74
2022/07/05 09:47:20;;;;;;;0.60;0.40;;;25.80;1.00;;;;;;5131785;27;20516;-74
2022/07/05 09:49:50;;;;;;;0.53;0.40;;;26.00;1.00;;;;;;5129325;27;20471;-73
2022/07/05 09:52:28;;;;;;;0.80;0.30;;;26.00;1.00;;;;;;5119596;27;20431;-72
2022/07/05 09:55:08;;;;;;;0.40;0.30;;;26.20;1.00;;;;;;5129325;27;20548;-73
2022/07/05 09:57:38;;;;;;;0.50;0.30;;;26.30;1.00;;;;;;5133058;27;20532;-73
2022/07/05 10:00:08;;;;;;;0.60;0.40;;;26.20;1.00;;;;;;5137819;27;20209;-75
2022/07/05 10:02:40;;;;;;;0.50;0.40;;;26.00;1.00;;;;;;5137317;27;20507;-75
2022/07/05 10:05:15;;;;;;;0.40;0.30;;;26.20;1.00;;;;;;5127050;27;20447;-75
2022/07/05 10:07:45;;;;;;;1.00;0.30;;;26.30;1.00;;;;;;5126124;27;20440;-75
2022/07/05 10:10:14;;;;;;;0.50;0.33;;;26.00;1.00;;;;;;5131966;27;20456;-75
2022/07/05 10:12:43;;;;;;;0.40;0.23;;;26.20;1.00;;;;;;5134839;27;20440;-75
2022/07/05 10:15:12;;;;;;;0.60;0.30;;;26.30;1.00;;;;;;5136560;27;20809;-75
2022/07/05 10:17:42;;;;;;;0.50;0.20;;;26.30;1.00;;;;;;5135224;27;20449;-74
2022/07/05 10:20:20;;;;;;;1.73;0.40;;;26.50;1.00;;;;;;5130279;27;20456;-75
2022/07/05 10:22:48;;;;;;;0.40;0.30;;;26.60;1.00;;;;;;5129142;27;20574;-75
2022/07/05 10:25:15;;;;;;;0.60;0.30;;;27.00;1.00;;;;;;5131174;27;20621;-75
2022/07/05 10:27:43;;;;;;;0.57;0.37;;;27.20;1.00;;;;;;5131442;27;20486;-74
2022/07/05 10:30:12;;;;;;;0.50;0.30;;;27.60;1.00;;;;;;5133431;27;20460;-74
2022/07/05 10:32:40;;;;;;;0.60;0.30;;;27.60;1.00;;;;;;5133569;27;20444;-74
2022/07/05 10:35:08;;;;;;;0.43;0.30;;;27.50;1.00;;;;;;5125785;27;20480;-74
2022/07/05 10:37:38;;;;;;;0.50;0.30;;;27.20;1.00;;;;;;5135837;27;20505;-74
2022/07/05 10:40:07;;;;;;;0.40;0.20;;;27.40;1.00;;;;;;5133887;27;20483;-75
2022/07/05 10:42:38;;;;;;;0.40;0.20;;;27.60;1.00;;;;;;5120083;27;21030;-74
2022/07/05 10:45:24;;;;;;;0.47;0.30;;;28.00;1.00;;;;;;5113377;28;20813;-74
2022/07/05 10:48:17;;;;;;;0.47;0.30;;;28.30;1.00;;;;;;5115178;28;20444;-74
2022/07/05 10:50:49;;;;;;;0.50;0.30;;;28.50;1.00;;;;;;5107085;28;20570;-75
2022/07/05 10:53:20;;;;;;;0.40;0.30;;;28.60;1.00;;;;;;5114835;28;20472;-76
2022/07/05 10:55:55;;;;;;;0.50;0.30;;;28.90;1.00;;;;;;5124102;27;20469;-73
2022/07/05 10:58:30;;;;;;;1.17;0.20;;;29.30;1.00;;;;;;5114210;28;20432;-74
2022/07/05 11:01:44;;;;;;;1.73;0.30;;;29.60;1.00;;;;;;5112883;28;20525;-73
2022/07/05 11:04:29;;;;;;;0.40;0.30;;;30.10;1.00;;;;;;5113575;28;20480;-74
2022/07/05 11:06:57;;;;;;;0.43;0.30;;;30.50;1.00;;;;;;5113570;28;20445;-76
2022/07/05 11:09:25;;;;;;;0.50;0.40;;;29.40;1.00;;;;;;5111851;28;20809;-74
2022/07/05 11:12:13;;;;;;;0.57;0.40;;;29.10;1.00;;;;;;5113287;28;20455;-75
2022/07/05 11:14:46;;;;;;;1.13;0.30;;;29.30;1.00;;;;;;5113118;28;20919;-74
2022/07/05 11:17:34;;;;;;;0.53;0.30;;;29.60;1.00;;;;;;5113131;28;20515;-75
2022/07/05 11:20:26;;;;;;;0.50;0.30;;;30.20;1.00;;;;;;5112755;28;20452;-74
2022/07/05 11:23:12;;;;;;;0.40;0.30;;;30.10;1.00;;;;;;5112267;28;20571;-74
2022/07/05 11:25:44;;;;;;;0.40;0.30;;;30.50;1.00;;;;;;5113342;28;20539;-73
2022/07/05 11:28:21;;;;;;;0.90;0.60;;;30.70;1.00;;;;;;5110306;28;20830;-73
2022/07/05 11:30:54;;;;;;;0.50;0.30;;;29.80;1.00;;;;;;5109332;28;20471;-76
2022/07/05 11:33:38;;;;;;;0.47;0.40;;;29.10;1.00;;;;;;5110492;28;20548;-76
2022/07/05 11:36:08;;;;;;;1.23;0.40;;;29.20;1.00;;;;;;5109247;28;20444;-75
2022/07/05 11:38:35;;;;;;;0.60;0.30;;;29.70;1.00;;;;;;5111833;28;20441;-75
2022/07/05 11:41:14;;;;;;;1.03;0.30;;;29.70;1.00;;;;;;5113309;28;20566;-74
2022/07/05 11:43:42;;;;;;;0.40;0.30;;;30.00;1.00;;;;;;5112722;28;20578;-72
2022/07/05 11:46:10;;;;;;;0.40;0.30;;;29.70;1.00;;;;;;5112855;28;20659;-71
2022/07/05 11:48:38;;;;;;;0.80;0.30;;;29.30;1.00;;;;;;5111590;28;20452;-71
2022/07/05 11:51:15;;;;;;;0.40;0.30;;;29.70;1.00;;;;;;5112503;28;20448;-73
2022/07/05 11:53:43;;;;;;;0.60;0.30;;;30.00;1.00;;;;;;5112192;28;20540;-73
2022/07/05 11:56:11;;;;;;;0.50;0.40;;;30.60;1.00;;;;;;5112008;28;20749;-72
2022/07/05 11:58:39;;;;;;;0.47;0.37;;;30.60;1.00;;;;;;5111760;28;20450;-73
2022/07/05 12:01:07;;;;;;;0.50;0.33;;;30.20;1.00;;;;;;5109850;28;20472;-72
2022/07/05 12:03:34;;;;;;;0.40;0.30;;;29.70;1.00;;;;;;5110424;28;20772;-72
2022/07/05 12:06:12;;;;;;;0.50;0.30;;;29.50;1.00;;;;;;5107895;28;20444;-72
2022/07/05 12:08:39;;;;;;;0.50;0.30;;;29.40;1.00;;;;;;5110347;28;20471;-74
2022/07/05 12:13:53;;;;;;;0.50;0.30;;;30.40;1.00;;;;;;5114550;27;20464;-73
2022/07/05 12:16:20;;;;;;;0.50;0.30;;;31.00;1.00;;;;;;5132228;27;20676;-73
2022/07/05 12:18:51;;;;;;;0.60;0.40;;;30.90;1.00;;;;;;5131893;27;20871;-73
2022/07/05 12:21:20;;;;;;;0.73;0.50;;;30.20;1.00;;;;;;5131022;27;20500;-73
2022/07/05 12:23:48;;;;;;;2.73;0.40;;;29.90;1.00;;;;;;5134617;27;20942;-74
2022/07/05 12:26:17;;;;;;;0.90;0.37;;;30.20;1.00;;;;;;5130782;27;20471;-73
2022/07/05 12:28:45;;;;;;;0.43;0.30;;;30.30;1.00;;;;;;5113867;28;20501;-73
2022/07/05 12:31:21;;;;;;;0.93;0.30;;;30.20;1.00;;;;;;5113475;27;20895;-73
2022/07/05 12:33:48;;;;;;;0.80;0.40;;;30.30;1.00;;;;;;5125095;27;20858;-73
2022/07/05 12:36:16;;;;;;;0.40;0.30;;;30.70;1.00;;;;;;5132717;27;20471;-73
2022/07/05 12:38:44;;;;;;;0.53;0.40;;;30.70;1.00;;;;;;5131716;27;20523;-73
2022/07/05 12:41:12;;;;;;;0.50;0.30;;;31.10;1.00;;;;;;5121065;27;20497;-73
2022/07/05 12:43:53;;;;;;;0.40;0.40;;;31.40;1.00;;;;;;5117607;27;20518;-73
2022/07/05 12:46:35;;;;;;;0.93;0.30;;;31.60;1.00;;;;;;5135347;27;20457;-73
2022/07/05 12:49:02;;;;;;;0.60;0.30;;;31.60;1.00;;;;;;5124188;27;20461;-73
2022/07/05 12:51:34;;;;;;;0.50;0.40;;;31.60;1.00;;;;;;5127583;27;21049;-73
2022/07/05 12:59:34;;;;;;;0.40;0.30;;;31.50;1.00;;;;;;5128538;27;20488;-72
2022/07/05 13:02:03;;;;;;;0.70;0.40;;;31.00;1.00;;;;;;5138820;27;20494;-71
2022/07/05 13:04:33;;;;;;;1.30;0.50;;;31.20;1.00;;;;;;5136420;27;20532;-72
2022/07/05 13:07:02;;;;;;;0.70;0.37;;;30.10;1.00;;;;;;5137577;27;20479;-72
2022/07/05 13:09:34;;;;;;;0.80;0.40;;;29.80;1.00;;;;;;5135457;27;20451;-72
2022/07/05 13:12:12;;;;;;;1.00;0.40;;;29.30;1.00;;;;;;5133981;27;20538;-71
2022/07/05 13:14:40;;;;;;;1.57;0.50;;;30.00;1.00;;;;;;5136360;27;20553;-71
2022/07/05 13:17:11;;;;;;;0.50;0.30;;;30.50;1.00;;;;;;5135239;27;20636;-71
2022/07/05 13:19:40;;;;;;;0.50;0.40;;;31.00;1.00;;;;;;5134400;27;20487;-71